sensor_id;sensor_type;location;lat;lon;timestamp;P1;durP1;ratioP1;P2;durP2;ratioP2
71955;SDS011;59829;50.562;6.258;2023-05-29T00:05:51;4.28;;;1.90;;
71955;SDS011;59829;50.562;6.258;2023-05-29T00:15:52;4.88;;;1.80;;
71955;SDS011;59829;50.562;6.258;2023-05-29T00:25:53;4.80;;;1.93;;
71955;SDS011;59829;50.562;6.258;2023-05-29T00:35:53;4.05;;;1.88;;
71955;SDS011;59829;50.562;6.258;2023-05-29T00:45:53;6.60;;;2.08;;
71955;SDS011;59829;50.562;6.258;2023-05-29T00:55:54;4.47;;;1.70;;
71955;SDS011;59829;50.562;6.258;2023-05-29T01:05:54;5.43;;;1.77;;
71955;SDS011;59829;50.562;6.258;2023-05-29T01:16:01;5.73;;;2.10;;
71955;SDS011;59829;50.562;6.258;2023-05-29T01:26:17;3.95;;;1.90;;
71955;SDS011;59829;50.562;6.258;2023-05-29T01:36:26;5.20;;;2.03;;
71955;SDS011;59829;50.562;6.258;2023-05-29T01:46:27;4.25;;;1.70;;
71955;SDS011;59829;50.562;6.258;2023-05-29T01:56:27;4.28;;;1.75;;
71955;SDS011;59829;50.562;6.258;2023-05-29T02:06:28;5.07;;;1.88;;
71955;SDS011;59829;50.562;6.258;2023-05-29T02:16:29;5.80;;;1.80;;
71955;SDS011;59829;50.562;6.258;2023-05-29T02:26:29;5.03;;;1.70;;
71955;SDS011;59829;50.562;6.258;2023-05-29T02:36:29;2.90;;;1.60;;
71955;SDS011;59829;50.562;6.258;2023-05-29T02:46:30;3.33;;;1.70;;
71955;SDS011;59829;50.562;6.258;2023-05-29T02:56:30;3.70;;;1.70;;
71955;SDS011;59829;50.562;6.258;2023-05-29T03:06:30;3.13;;;1.50;;
71955;SDS011;59829;50.562;6.258;2023-05-29T03:16:32;4.50;;;1.77;;
71955;SDS011;59829;50.562;6.258;2023-05-29T03:26:32;3.45;;;1.58;;
71955;SDS011;59829;50.562;6.258;2023-05-29T03:36:32;3.75;;;1.55;;
71955;SDS011;59829;50.562;6.258;2023-05-29T03:46:33;4.00;;;1.73;;
71955;SDS011;59829;50.562;6.258;2023-05-29T03:56:33;3.92;;;1.67;;
71955;SDS011;59829;50.562;6.258;2023-05-29T04:06:35;3.33;;;1.73;;
71955;SDS011;59829;50.562;6.258;2023-05-29T04:16:38;3.65;;;1.60;;
71955;SDS011;59829;50.562;6.258;2023-05-29T04:26:38;6.00;;;1.88;;
71955;SDS011;59829;50.562;6.258;2023-05-29T04:36:41;2.70;;;1.40;;
71955;SDS011;59829;50.562;6.258;2023-05-29T04:46:43;3.63;;;1.60;;
71955;SDS011;59829;50.562;6.258;2023-05-29T04:56:44;6.47;;;1.83;;
71955;SDS011;59829;50.562;6.258;2023-05-29T05:06:44;3.75;;;1.50;;
71955;SDS011;59829;50.562;6.258;2023-05-29T05:16:45;3.53;;;1.60;;
71955;SDS011;59829;50.562;6.258;2023-05-29T05:26:45;4.22;;;1.65;;
71955;SDS011;59829;50.562;6.258;2023-05-29T05:36:45;6.45;;;2.00;;
71955;SDS011;59829;50.562;6.258;2023-05-29T05:46:46;4.45;;;1.67;;
71955;SDS011;59829;50.562;6.258;2023-05-29T05:56:47;4.97;;;1.98;;
71955;SDS011;59829;50.562;6.258;2023-05-29T06:06:47;4.63;;;2.20;;
71955;SDS011;59829;50.562;6.258;2023-05-29T06:16:48;7.78;;;2.10;;
71955;SDS011;59829;50.562;6.258;2023-05-29T06:26:48;3.75;;;2.00;;
71955;SDS011;59829;50.562;6.258;2023-05-29T06:36:49;3.30;;;1.58;;
71955;SDS011;59829;50.562;6.258;2023-05-29T06:46:49;3.85;;;1.90;;
71955;SDS011;59829;50.562;6.258;2023-05-29T06:56:49;4.57;;;2.30;;
71955;SDS011;59829;50.562;6.258;2023-05-29T07:06:50;6.03;;;2.40;;
71955;SDS011;59829;50.562;6.258;2023-05-29T07:16:51;5.30;;;2.53;;
71955;SDS011;59829;50.562;6.258;2023-05-29T07:26:51;5.80;;;2.30;;
71955;SDS011;59829;50.562;6.258;2023-05-29T07:37:04;5.53;;;2.60;;
71955;SDS011;59829;50.562;6.258;2023-05-29T07:47:06;5.50;;;2.30;;
71955;SDS011;59829;50.562;6.258;2023-05-29T07:57:07;5.32;;;2.00;;
71955;SDS011;59829;50.562;6.258;2023-05-29T08:07:09;7.17;;;2.10;;
71955;SDS011;59829;50.562;6.258;2023-05-29T08:17:10;3.70;;;1.65;;
71955;SDS011;59829;50.562;6.258;2023-05-29T08:27:10;4.22;;;1.55;;
71955;SDS011;59829;50.562;6.258;2023-05-29T08:37:10;6.03;;;2.00;;
71955;SDS011;59829;50.562;6.258;2023-05-29T08:47:11;6.53;;;2.05;;
71955;SDS011;59829;50.562;6.258;2023-05-29T08:57:17;6.03;;;2.10;;
71955;SDS011;59829;50.562;6.258;2023-05-29T09:07:18;6.80;;;2.10;;
71955;SDS011;59829;50.562;6.258;2023-05-29T09:17:19;5.80;;;1.85;;
71955;SDS011;59829;50.562;6.258;2023-05-29T09:27:20;5.22;;;1.70;;
71955;SDS011;59829;50.562;6.258;2023-05-29T09:37:21;4.30;;;1.70;;
71955;SDS011;59829;50.562;6.258;2023-05-29T09:47:22;5.47;;;1.92;;
71955;SDS011;59829;50.562;6.258;2023-05-29T09:57:22;3.90;;;1.40;;
71955;SDS011;59829;50.562;6.258;2023-05-29T10:07:25;6.53;;;1.85;;
71955;SDS011;59829;50.562;6.258;2023-05-29T10:17:30;4.80;;;1.80;;
71955;SDS011;59829;50.562;6.258;2023-05-29T10:27:33;3.13;;;1.38;;
71955;SDS011;59829;50.562;6.258;2023-05-29T10:37:35;5.00;;;1.60;;
71955;SDS011;59829;50.562;6.258;2023-05-29T10:47:39;7.13;;;1.70;;
71955;SDS011;59829;50.562;6.258;2023-05-29T10:57:46;5.10;;;1.55;;
71955;SDS011;59829;50.562;6.258;2023-05-29T11:07:54;4.95;;;1.60;;
71955;SDS011;59829;50.562;6.258;2023-05-29T11:17:56;6.25;;;1.73;;
71955;SDS011;59829;50.562;6.258;2023-05-29T11:28:07;5.05;;;1.70;;
71955;SDS011;59829;50.562;6.258;2023-05-29T11:38:10;6.95;;;2.00;;
71955;SDS011;59829;50.562;6.258;2023-05-29T11:48:10;5.90;;;1.70;;
71955;SDS011;59829;50.562;6.258;2023-05-29T11:58:11;6.10;;;1.85;;
71955;SDS011;59829;50.562;6.258;2023-05-29T12:08:11;4.78;;;1.67;;
71955;SDS011;59829;50.562;6.258;2023-05-29T12:18:12;5.88;;;1.80;;
71955;SDS011;59829;50.562;6.258;2023-05-29T12:28:15;5.80;;;1.77;;
71955;SDS011;59829;50.562;6.258;2023-05-29T12:38:18;4.65;;;1.90;;
71955;SDS011;59829;50.562;6.258;2023-05-29T12:48:19;7.38;;;2.10;;
71955;SDS011;59829;50.562;6.258;2023-05-29T12:58:21;5.77;;;1.90;;
71955;SDS011;59829;50.562;6.258;2023-05-29T13:08:21;4.15;;;1.63;;
71955;SDS011;59829;50.562;6.258;2023-05-29T13:18:22;4.43;;;1.83;;
71955;SDS011;59829;50.562;6.258;2023-05-29T13:28:22;6.95;;;2.40;;
71955;SDS011;59829;50.562;6.258;2023-05-29T13:38:24;4.53;;;1.80;;
71955;SDS011;59829;50.562;6.258;2023-05-29T13:48:24;6.53;;;2.17;;
71955;SDS011;59829;50.562;6.258;2023-05-29T13:58:24;5.05;;;1.85;;
71955;SDS011;59829;50.562;6.258;2023-05-29T14:08:25;5.43;;;1.60;;
71955;SDS011;59829;50.562;6.258;2023-05-29T14:18:25;4.10;;;1.73;;
71955;SDS011;59829;50.562;6.258;2023-05-29T14:28:26;4.22;;;1.67;;
71955;SDS011;59829;50.562;6.258;2023-05-29T14:38:26;5.63;;;1.70;;
71955;SDS011;59829;50.562;6.258;2023-05-29T14:48:26;4.93;;;1.80;;
71955;SDS011;59829;50.562;6.258;2023-05-29T14:58:27;5.90;;;2.08;;
71955;SDS011;59829;50.562;6.258;2023-05-29T15:08:28;5.33;;;1.50;;
71955;SDS011;59829;50.562;6.258;2023-05-29T15:18:34;5.63;;;1.77;;
71955;SDS011;59829;50.562;6.258;2023-05-29T15:28:34;5.75;;;1.83;;
71955;SDS011;59829;50.562;6.258;2023-05-29T15:38:34;4.65;;;1.50;;
71955;SDS011;59829;50.562;6.258;2023-05-29T15:48:35;4.85;;;1.88;;
71955;SDS011;59829;50.562;6.258;2023-05-29T15:58:35;4.13;;;1.48;;
71955;SDS011;59829;50.562;6.258;2023-05-29T16:08:36;5.70;;;1.70;;
71955;SDS011;59829;50.562;6.258;2023-05-29T16:18:36;8.68;;;1.80;;
71955;SDS011;59829;50.562;6.258;2023-05-29T16:28:37;5.47;;;1.60;;
71955;SDS011;59829;50.562;6.258;2023-05-29T16:38:37;5.65;;;1.90;;
71955;SDS011;59829;50.562;6.258;2023-05-29T16:48:37;5.30;;;1.90;;
71955;SDS011;59829;50.562;6.258;2023-05-29T16:58:40;4.93;;;1.35;;
71955;SDS011;59829;50.562;6.258;2023-05-29T17:08:40;4.03;;;1.55;;
71955;SDS011;59829;50.562;6.258;2023-05-29T17:18:41;3.77;;;1.50;;
71955;SDS011;59829;50.562;6.258;2023-05-29T17:28:41;5.75;;;1.30;;
71955;SDS011;59829;50.562;6.258;2023-05-29T17:38:41;5.05;;;1.48;;
71955;SDS011;59829;50.562;6.258;2023-05-29T17:48:42;2.80;;;1.20;;
71955;SDS011;59829;50.562;6.258;2023-05-29T17:58:42;3.35;;;1.50;;
71955;SDS011;59829;50.562;6.258;2023-05-29T18:08:43;4.88;;;1.50;;
71955;SDS011;59829;50.562;6.258;2023-05-29T18:18:43;4.57;;;1.70;;
71955;SDS011;59829;50.562;6.258;2023-05-29T18:28:44;5.18;;;1.45;;
71955;SDS011;59829;50.562;6.258;2023-05-29T18:38:44;3.90;;;1.20;;
71955;SDS011;59829;50.562;6.258;2023-05-29T18:48:45;3.00;;;1.17;;
71955;SDS011;59829;50.562;6.258;2023-05-29T18:58:45;7.68;;;1.50;;
71955;SDS011;59829;50.562;6.258;2023-05-29T19:08:46;4.70;;;1.17;;
71955;SDS011;59829;50.562;6.258;2023-05-29T19:18:46;3.20;;;1.08;;
71955;SDS011;59829;50.562;6.258;2023-05-29T19:28:46;2.58;;;1.05;;
71955;SDS011;59829;50.562;6.258;2023-05-29T19:38:49;4.47;;;1.10;;
71955;SDS011;59829;50.562;6.258;2023-05-29T19:48:50;5.32;;;1.10;;
71955;SDS011;59829;50.562;6.258;2023-05-29T19:58:51;2.75;;;1.02;;
71955;SDS011;59829;50.562;6.258;2023-05-29T20:08:53;3.20;;;1.13;;
71955;SDS011;59829;50.562;6.258;2023-05-29T20:18:53;2.75;;;0.95;;
71955;SDS011;59829;50.562;6.258;2023-05-29T20:28:53;4.82;;;0.93;;
71955;SDS011;59829;50.562;6.258;2023-05-29T20:38:54;3.85;;;1.10;;
71955;SDS011;59829;50.562;6.258;2023-05-29T20:48:54;2.95;;;0.95;;
71955;SDS011;59829;50.562;6.258;2023-05-29T20:58:55;2.40;;;0.80;;
71955;SDS011;59829;50.562;6.258;2023-05-29T21:08:55;2.88;;;0.85;;
71955;SDS011;59829;50.562;6.258;2023-05-29T21:18:55;2.17;;;0.82;;
71955;SDS011;59829;50.562;6.258;2023-05-29T21:28:56;4.22;;;0.80;;
71955;SDS011;59829;50.562;6.258;2023-05-29T21:38:56;3.00;;;0.77;;
71955;SDS011;59829;50.562;6.258;2023-05-29T21:48:56;4.57;;;0.90;;
71955;SDS011;59829;50.562;6.258;2023-05-29T21:58:57;3.28;;;0.80;;
71955;SDS011;59829;50.562;6.258;2023-05-29T22:08:57;4.68;;;1.00;;
71955;SDS011;59829;50.562;6.258;2023-05-29T22:18:58;3.15;;;0.93;;
71955;SDS011;59829;50.562;6.258;2023-05-29T22:28:58;2.65;;;0.80;;
71955;SDS011;59829;50.562;6.258;2023-05-29T22:38:59;3.03;;;0.88;;
71955;SDS011;59829;50.562;6.258;2023-05-29T22:48:59;3.60;;;0.93;;
71955;SDS011;59829;50.562;6.258;2023-05-29T22:58:59;5.40;;;0.85;;
71955;SDS011;59829;50.562;6.258;2023-05-29T23:08:59;3.53;;;1.10;;
71955;SDS011;59829;50.562;6.258;2023-05-29T23:19:01;2.53;;;0.70;;
71955;SDS011;59829;50.562;6.258;2023-05-29T23:29:02;2.58;;;0.77;;
71955;SDS011;59829;50.562;6.258;2023-05-29T23:39:02;3.17;;;0.90;;
71955;SDS011;59829;50.562;6.258;2023-05-29T23:49:04;5.50;;;1.30;;
71955;SDS011;59829;50.562;6.258;2023-05-29T23:59:05;2.67;;;0.85;;
